Airfield :
LOGIN :

Register | Disclaimer

   EN    FR    IT 

 










Legend :    VFR   Marginal VFR   IFR   Intensive IFR   Very Intensive IFR
Visi :
Ceiling :
>= 8 km
>= 3000ft
5 to 8 km
1000 to 3000 ft
1500m to 5 km
500 to 1000 ft
800 to 1500m
200 to 500 ft
< 800m
< 200 ft
Symbols :   Thunderstorms  Fog  Heavy snow  Heavy precipitations  Wind > 20 kt
SIGMETs :     Misc.  Thunderstorms  Icing  Turbulence  Mountain Waves  Volcanic Ashes






- Airport Elevation : 517 ft
- IATA code : GML


UKKM - Antonov

CURRENT METAR :
  • 021330Z 27009MPS CAVOK 11/M08 Q1010 R33/CLRD60 TEMPO 25009G14MPS

EXPIRED METARs :
  • 021300Z 27008MPS CAVOK 11/M08 Q1010 R33/CLRD60 TEMPO 25009G14MPS
  • 021230Z 27008MPS 230V290 CAVOK 11/M08 Q1011 R33/CLRD60 TEMPO 25009G14MPS
  • 021214Z 27008G14MPS CAVOK 11/M08 Q1011 R33/CLRD60 NOSIG
  • 021200Z 26007MPS 220V290 CAVOK 11/M08 Q1011 R33/CLRD60 NOSIG
  • 021130Z 27008MPS CAVOK 10/M08 Q1011 R33/CLRD60 NOSIG
  • 021100Z 26007G12MPS 230V300 CAVOK 10/M08 Q1011 R33/CLRD60 NOSIG

TAF TAF UKKM
Valid from the 02 at 12:00 until the 03 at 12:00 UTC


021102Z 0212/0312 25006G11MPS 9999 SCT030 TX14/0312Z TNM01/0305Z
TEMPO 0212/0215 27009G14MPS SCT015CB
BECMG 0215/0217 22003G08MPS
TEMPO 0306/0312 23007G13MPS



MET'MAP, your aeronautical weather chart ! - Copyright ORBIFLY December 2007 - Disclaimer

ORBIFLY MET'MAP TEAM :

Programming & Development : Alexandra Zaïnal
Concept & original design : Baudouin d'Aumeries
Assistance for programming : Marc-Olivier Méhu
Technical & hardware support : Manuel Goepfert

Contact : metmap@orbifly.com




SOURCES & CREDITS :

   NOAA